Dades meteomassalio
Diari Summary for Gener 11, 2017 Units:  English    Metric   Both
« Previous Day
Next Day »
Diari Semanal Mensual Anual Personalitzat
  Maxima: Minima: Mijana:
Temperatura: TemperatureC °F 4.7 °F 10.5 °F
Rosada: DewpointC °F 2.6 °F 6.9 °F
Humitat: Humidity % 68 % 78 %
Velocitat del vent: WindSpeedKMH mph 0.0 mph 18.2 mph
Racha vent: WindSpeedGustKMH mph - -
Vent:- - WNW
Pressio: PressurehPa in 1015.8 in -
Pluja: 0.0 in    
Historical Graphs
 
 
Tabular Data for Gener 11, 2017
Time Temperature Dew Point Pressure Wind Wind Speed Wind Gust Humidity Rainfall Rate (Hourly) solar Conditions
TemperatureC °F DewpointC °F PressurehPa in Calm     Humidity % HourlyPrecipMM in SolarRadiationWatts/m^2 W/m2 Conditions
00:02 7.8 °F 4.7 °F 1016.1 in NW 29.0 mph 29.0 mph 81 % 0.0 in 0.0 W/m2 CLR
00:07 7.7 °F 4.7 °F 1015.8 in NW 25.7 mph 25.7 mph 81 % 0.0 in 0.0 W/m2 CLR
00:12 7.7 °F 4.6 °F 1015.8 in NW 37.0 mph 37.0 mph 81 % 0.0 in 0.0 W/m2 CLR
00:17 7.6 °F 4.7 °F 1015.8 in NW 38.9 mph 38.9 mph 82 % 0.0 in 0.0 W/m2 CLR
00:23 7.6 °F 4.7 °F 1015.8 in NW 31.5 mph 31.5 mph 82 % 0.0 in 0.0 W/m2 CLR
00:28 7.7 °F 4.8 °F 1015.8 in NW 37.0 mph 37.0 mph 82 % 0.0 in 0.0 W/m2 CLR
00:33 7.7 °F 4.7 °F 1015.8 in NW 33.3 mph 33.3 mph 81 % 0.0 in 0.0 W/m2 CLR
00:38 7.7 °F 4.7 °F 1015.8 in NW 31.5 mph 31.5 mph 81 % 0.0 in 0.0 W/m2 CLR
00:43 7.7 °F 4.8 °F 1015.8 in NW 27.8 mph 27.8 mph 82 % 0.0 in 0.0 W/m2 CLR
00:48 7.7 °F 4.8 °F 1015.8 in NW 37.0 mph 37.0 mph 82 % 0.0 in 0.0 W/m2 CLR
00:53 7.7 °F 4.8 °F 1015.8 in NW 31.5 mph 31.5 mph 82 % 0.0 in 0.0 W/m2 CLR
00:58 7.7 °F 4.8 °F 1015.8 in NW 24.1 mph 24.1 mph 82 % 0.0 in 0.0 W/m2 CLR
01:03 7.7 °F 4.8 °F 1015.8 in NW 32.2 mph 32.2 mph 82 % 0.0 in 0.0 W/m2 CLR
01:08 7.7 °F 4.8 °F 1016.1 in NW 37.0 mph 37.0 mph 82 % 0.0 in 0.0 W/m2 CLR
01:13 7.7 °F 4.8 °F 1015.8 in NW 27.8 mph 27.8 mph 82 % 0.0 in 0.0 W/m2 CLR
01:18 7.7 °F 4.8 °F 1016.1 in NW 35.2 mph 35.2 mph 82 % 0.0 in 0.0 W/m2 CLR
01:23 7.8 °F 4.9 °F 1016.1 in NW 29.6 mph 29.6 mph 82 % 0.0 in 0.0 W/m2 CLR
01:28 7.9 °F 5.1 °F 1016.5 in NW 37.0 mph 37.0 mph 82 % 0.0 in 0.0 W/m2 CLR
01:33 8.0 °F 4.9 °F 1016.1 in NW 32.2 mph 32.2 mph 81 % 0.0 in 0.0 W/m2 CLR
01:38 8.1 °F 5.0 °F 1016.1 in NW 38.9 mph 38.9 mph 81 % 0.0 in 0.0 W/m2 CLR
01:43 8.1 °F 5.1 °F 1015.8 in NW 35.2 mph 35.2 mph 81 % 0.0 in 0.0 W/m2 CLR
01:48 8.1 °F 5.1 °F 1016.1 in NW 40.7 mph 40.7 mph 81 % 0.0 in 0.0 W/m2 CLR
01:53 8.2 °F 5.1 °F 1016.1 in NW 42.6 mph 42.6 mph 81 % 0.0 in 0.0 W/m2 CLR
01:58 8.2 °F 5.1 °F 1016.1 in NW 42.6 mph 42.6 mph 81 % 0.0 in 0.0 W/m2 CLR
02:03 8.1 °F 5.1 °F 1016.1 in NW 46.3 mph 46.3 mph 81 % 0.0 in 0.0 W/m2 CLR
02:08 8.1 °F 5.1 °F 1016.1 in NW 51.8 mph 51.8 mph 81 % 0.0 in 0.0 W/m2 CLR
02:13 8.2 °F 5.1 °F 1016.1 in NW 51.8 mph 51.8 mph 81 % 0.0 in 0.0 W/m2 CLR
02:18 8.1 °F 5.0 °F 1016.5 in NW 40.7 mph 40.7 mph 81 % 0.0 in 0.0 W/m2 CLR
02:23 8.1 °F 5.0 °F 1016.5 in NW 40.7 mph 40.7 mph 81 % 0.0 in 0.0 W/m2 CLR
02:28 8.0 °F 4.9 °F 1016.5 in NW 37.0 mph 37.0 mph 81 % 0.0 in 0.0 W/m2 CLR
02:33 8.0 °F 4.9 °F 1016.8 in NNW 37.0 mph 37.0 mph 81 % 0.0 in 0.0 W/m2 CLR
02:38 7.9 °F 4.9 °F 1016.8 in NNW 37.0 mph 37.0 mph 81 % 0.0 in 0.0 W/m2 CLR
02:43 7.9 °F 4.7 °F 1016.8 in NNW 40.7 mph 40.7 mph 80 % 0.0 in 0.0 W/m2 CLR
02:48 7.9 °F 4.7 °F 1016.8 in NW 35.2 mph 35.2 mph 80 % 0.0 in 0.0 W/m2 CLR
02:53 7.9 °F 4.7 °F 1017.2 in NNW 46.3 mph 46.3 mph 80 % 0.0 in 0.0 W/m2 CLR
02:58 7.9 °F 4.7 °F 1017.5 in NNW 35.4 mph 35.4 mph 80 % 0.0 in 0.0 W/m2 CLR
03:03 7.8 °F 4.6 °F 1017.5 in NNW 37.0 mph 37.0 mph 80 % 0.0 in 0.0 W/m2 CLR
03:08 7.8 °F 4.6 °F 1017.5 in NNW 42.6 mph 42.6 mph 80 % 0.0 in 0.0 W/m2 CLR
03:13 7.8 °F 4.6 °F 1017.5 in NW 42.6 mph 42.6 mph 80 % 0.0 in 0.0 W/m2 CLR
03:18 7.8 °F 4.7 °F 1017.5 in NW 35.4 mph 35.4 mph 81 % 0.0 in 0.0 W/m2 CLR
03:23 7.8 °F 4.7 °F 1017.5 in NW 33.3 mph 33.3 mph 81 % 0.0 in 0.0 W/m2 CLR
03:28 7.7 °F 4.6 °F 1017.5 in NNW 40.7 mph 40.7 mph 81 % 0.0 in 0.0 W/m2 CLR
03:33 7.7 °F 4.6 °F 1017.5 in NW 31.5 mph 31.5 mph 81 % 0.0 in 0.0 W/m2 CLR
03:38 7.6 °F 4.6 °F 1017.8 in NW 38.9 mph 38.9 mph 81 % 0.0 in 0.0 W/m2 CLR
03:43 7.6 °F 4.4 °F 1017.8 in NW 35.2 mph 35.2 mph 80 % 0.0 in 0.0 W/m2 CLR
03:48 7.6 °F 4.6 °F 1017.8 in NW 40.7 mph 40.7 mph 81 % 0.0 in 0.0 W/m2 CLR
03:53 7.5 °F 4.4 °F 1017.5 in NW 31.5 mph 31.5 mph 81 % 0.0 in 0.0 W/m2 CLR
03:58 7.4 °F 4.4 °F 1017.5 in NNW 35.2 mph 35.2 mph 81 % 0.0 in 0.0 W/m2 CLR
04:03 7.4 °F 4.4 °F 1017.5 in NNW 31.5 mph 31.5 mph 81 % 0.0 in 0.0 W/m2 CLR
04:08 7.5 °F 4.3 °F 1017.5 in NNW 27.8 mph 27.8 mph 80 % 0.0 in 0.0 W/m2 CLR
04:13 7.4 °F 4.2 °F 1017.5 in NNW 33.3 mph 33.3 mph 80 % 0.0 in 0.0 W/m2 CLR
04:18 7.4 °F 4.2 °F 1017.8 in NW 25.7 mph 25.7 mph 80 % 0.0 in 0.0 W/m2 CLR
04:23 7.4 °F 4.2 °F 1017.8 in NW 24.1 mph 24.1 mph 80 % 0.0 in 0.0 W/m2 CLR
04:28 7.3 °F 4.1 °F 1018.2 in NW 20.9 mph 20.9 mph 80 % 0.0 in 0.0 W/m2 CLR
04:33 7.3 °F 4.1 °F 1018.2 in NW 24.1 mph 24.1 mph 80 % 0.0 in 0.0 W/m2 CLR
04:38 7.2 °F 4.0 °F 1018.2 in NW 20.4 mph 20.4 mph 80 % 0.0 in 0.0 W/m2 CLR
04:43 7.2 °F 4.0 °F 1018.5 in WNW 14.8 mph 14.8 mph 80 % 0.0 in 0.0 W/m2 CLR
04:48 7.1 °F 3.9 °F 1018.5 in WNW 12.9 mph 12.9 mph 80 % 0.0 in 0.0 W/m2 CLR
04:53 7.1 °F 3.8 °F 1018.5 in WNW 16.7 mph 16.7 mph 80 % 0.0 in 0.0 W/m2 CLR
04:58 6.9 °F 3.9 °F 1018.5 in WNW 16.1 mph 16.1 mph 81 % 0.0 in 0.0 W/m2 CLR
05:03 6.8 °F 3.8 °F 1018.5 in WNW 16.1 mph 16.1 mph 81 % 0.0 in 0.0 W/m2 CLR
05:08 6.8 °F 3.8 °F 1018.5 in WNW 14.8 mph 14.8 mph 81 % 0.0 in 0.0 W/m2 CLR
05:14 6.8 °F 3.9 °F 1018.5 in WNW 14.5 mph 14.5 mph 82 % 0.0 in 0.0 W/m2 CLR
05:19 6.8 °F 4.0 °F 1018.8 in WNW 16.7 mph 16.7 mph 82 % 0.0 in 0.0 W/m2 CLR
05:24 6.8 °F 3.9 °F 1018.8 in WNW 18.5 mph 18.5 mph 82 % 0.0 in 0.0 W/m2 CLR
05:29 6.8 °F 3.9 °F 1018.8 in WNW 16.7 mph 16.7 mph 82 % 0.0 in 0.0 W/m2 CLR
05:34 6.9 °F 4.0 °F 1019.2 in WNW 20.4 mph 20.4 mph 82 % 0.0 in 0.0 W/m2 CLR
05:39 6.9 °F 4.0 °F 1019.2 in WNW 19.3 mph 19.3 mph 82 % 0.0 in 0.0 W/m2 CLR
05:44 6.9 °F 4.0 °F 1019.2 in WNW 22.2 mph 22.2 mph 82 % 0.0 in 0.0 W/m2 CLR
05:49 6.9 °F 3.9 °F 1019.2 in WNW 20.4 mph 20.4 mph 81 % 0.0 in 0.0 W/m2 CLR
05:54 7.0 °F 3.9 °F 1019.2 in WNW 16.7 mph 16.7 mph 81 % 0.0 in 0.0 W/m2 CLR
05:59 7.0 °F 3.9 °F 1019.2 in WNW 18.5 mph 18.5 mph 81 % 0.0 in 0.0 W/m2 CLR
06:04 6.9 °F 3.9 °F 1019.2 in WNW 16.7 mph 16.7 mph 81 % 0.0 in 0.0 W/m2 CLR
06:09 6.8 °F 3.8 °F 1019.5 in WNW 20.4 mph 20.4 mph 81 % 0.0 in 0.0 W/m2 CLR
06:14 6.8 °F 3.7 °F 1019.5 in WNW 18.5 mph 18.5 mph 81 % 0.0 in 0.0 W/m2 CLR
06:19 6.9 °F 3.8 °F 1019.5 in WNW 16.7 mph 16.7 mph 81 % 0.0 in 0.0 W/m2 CLR
06:24 7.0 °F 3.9 °F 1019.5 in WNW 16.7 mph 16.7 mph 81 % 0.0 in 0.0 W/m2 CLR
06:29 7.1 °F 3.8 °F 1019.9 in West 14.8 mph 14.8 mph 80 % 0.0 in 0.0 W/m2 CLR
06:34 7.1 °F 3.8 °F 1019.9 in West 7.4 mph 7.4 mph 80 % 0.0 in 0.0 W/m2 CLR
06:39 6.8 °F 3.4 °F 1020.2 in Calm     79 % 0.0 in 0.0 W/m2 CLR
06:44 6.3 °F 3.3 °F 1020.2 in WSW 11.3 mph 11.4 mph 81 % 0.0 in 0.0 W/m2 CLR
06:49 6.0 °F 3.3 °F 1020.2 in WSW 13.0 mph 13.0 mph 83 % 0.0 in 0.0 W/m2 CLR
06:54 5.9 °F 3.2 °F 1019.9 in WSW 14.8 mph 14.8 mph 83 % 0.0 in 0.0 W/m2 CLR
06:59 5.8 °F 3.3 °F 1019.9 in WSW 16.7 mph 16.7 mph 84 % 0.0 in 0.0 W/m2 CLR
07:04 5.8 °F 3.3 °F 1020.2 in WSW 13.0 mph 13.0 mph 84 % 0.0 in 0.0 W/m2 CLR
07:09 5.8 °F 3.3 °F 1020.2 in WSW 11.1 mph 11.1 mph 84 % 0.0 in 0.0 W/m2 CLR
07:14 5.8 °F 3.3 °F 1020.5 in WSW 11.3 mph 11.3 mph 84 % 0.0 in 0.0 W/m2 CLR
07:19 5.7 °F 3.2 °F 1020.5 in WSW 9.3 mph 9.3 mph 84 % 0.0 in 0.0 W/m2 CLR
07:24 5.6 °F 3.1 °F 1020.5 in WSW 9.3 mph 9.3 mph 84 % 0.0 in 0.0 W/m2 CLR
07:29 5.3 °F 2.8 °F 1020.5 in Calm     84 % 0.0 in 0.0 W/m2 CLR
07:34 5.1 °F 2.8 °F 1020.9 in Calm     85 % 0.0 in 0.0 W/m2 CLR
07:39 4.9 °F 2.8 °F 1020.9 in Calm     86 % 0.0 in 0.0 W/m2 CLR
07:44 4.9 °F 2.7 °F 1020.9 in Calm     86 % 0.0 in 0.0 W/m2 CLR
07:49 4.8 °F 2.6 °F 1020.9 in Calm     86 % 0.0 in 0.0 W/m2 CLR
07:54 4.7 °F 2.6 °F 1020.9 in Calm     86 % 0.0 in 0.0 W/m2 CLR
07:59 4.7 °F 2.7 °F 1020.9 in Calm     87 % 0.0 in 0.0 W/m2 CLR
08:04 4.8 °F 2.8 °F 1021.2 in Calm     87 % 0.0 in 0.0 W/m2 CLR
08:09 4.8 °F 2.8 °F 1021.2 in Calm     87 % 0.0 in 0.0 W/m2 CLR
08:14 4.9 °F 2.9 °F 1021.2 in Calm     87 % 0.0 in 0.0 W/m2 CLR
08:19 5.1 °F 3.1 °F 1021.6 in Calm     87 % 0.0 in 5.0 W/m2 CLR
08:24 5.2 °F 3.2 °F 1021.2 in Calm     87 % 0.0 in 5.0 W/m2 BKN
08:29 5.4 °F 3.4 °F 1021.6 in Calm     87 % 0.0 in 7.0 W/m2 BKN
08:34 5.6 °F 3.6 °F 1021.2 in Calm     87 % 0.0 in 12.0 W/m2 BKN
08:39 6.0 °F 3.8 °F 1021.6 in Calm     86 % 0.0 in 16.0 W/m2 BKN
08:44 6.6 °F 4.3 °F 1021.6 in West 7.4 mph 7.4 mph 85 % 0.0 in 18.0 W/m2 BKN
08:49 6.9 °F 4.4 °F 1021.6 in West 11.1 mph 11.1 mph 84 % 0.0 in 18.0 W/m2 BKN
08:54 7.2 °F 4.5 °F 1021.6 in West 7.4 mph   83 % 0.0 in 21.0 W/m2 BKN
08:59 7.4 °F 4.5 °F 1021.9 in Calm     82 % 0.0 in 25.0 W/m2 BKN
09:04 7.4 °F 4.6 °F 1021.9 in Calm     82 % 0.0 in 28.0 W/m2 BKN
09:09 7.5 °F 4.6 °F 1021.9 in Calm     82 % 0.0 in 35.0 W/m2 BKN
09:14 7.5 °F 4.6 °F 1021.9 in Calm     82 % 0.0 in 40.0 W/m2 BKN
09:19 7.5 °F 4.6 °F 1021.9 in West 16.7 mph 16.7 mph 82 % 0.0 in 47.0 W/m2 BKN
09:24 7.7 °F 4.8 °F 1021.9 in WSW 14.5 mph 14.5 mph 82 % 0.0 in 58.0 W/m2 BKN
09:29 7.8 °F 4.7 °F 1021.9 in West 16.7 mph 16.7 mph 81 % 0.0 in 56.0 W/m2 BKN
09:34 7.8 °F 4.8 °F 1022.2 in WNW 11.3 mph 11.3 mph 81 % 0.0 in 58.0 W/m2 BKN
09:39 7.9 °F 4.8 °F 1022.2 in WNW 14.8 mph 14.8 mph 81 % 0.0 in 51.0 W/m2 BKN
09:44 7.9 °F 4.9 °F 1022.2 in West 9.3 mph 9.3 mph 81 % 0.0 in 72.0 W/m2 BKN
09:49 8.0 °F 4.9 °F 1022.6 in Calm     81 % 0.0 in 95.0 W/m2 BKN
09:54 8.1 °F 5.0 °F 1022.6 in Calm     81 % 0.0 in 70.0 W/m2 BKN
09:59 8.0 °F 4.9 °F 1022.9 in Calm     81 % 0.0 in 83.0 W/m2 BKN
10:04 7.9 °F 4.9 °F 1022.6 in Calm     81 % 0.0 in 97.0 W/m2 BKN
10:09 8.0 °F 5.1 °F 1022.9 in Calm     82 % 0.0 in 95.0 W/m2 BKN
10:14 8.1 °F 5.2 °F 1022.9 in Calm     82 % 0.0 in 91.0 W/m2 BKN
10:19 8.1 °F 5.2 °F 1022.6 in Calm     82 % 0.0 in 100.0 W/m2 BKN
10:24 8.3 °F 5.4 °F 1022.6 in Calm     82 % 0.0 in 97.0 W/m2 BKN
10:29 8.4 °F 5.5 °F 1022.6 in Calm     82 % 0.0 in 91.0 W/m2 BKN
10:34 8.5 °F 5.6 °F 1022.6 in Calm     82 % 0.0 in 86.0 W/m2 BKN
10:40 8.6 °F 5.7 °F 1022.9 in WSW 3.7 mph 3.7 mph 82 % 0.0 in 95.0 W/m2 BKN
10:45 8.8 °F 5.7 °F 1022.9 in WSW 5.6 mph 5.6 mph 81 % 0.0 in 127.0 W/m2 BKN
10:50 8.9 °F 5.8 °F 1023.2 in Calm     81 % 0.0 in 160.0 W/m2 BKN
10:55 9.1 °F 6.0 °F 1023.2 in Calm     81 % 0.0 in 128.0 W/m2 BKN
11:00 9.3 °F 6.2 °F 1023.2 in Calm     81 % 0.0 in 137.0 W/m2 BKN
11:05 9.4 °F 6.3 °F 1023.2 in WSW 3.2 mph 3.2 mph 81 % 0.0 in 123.0 W/m2 BKN
11:10 9.6 °F 6.3 °F 1023.2 in WSW 4.8 mph 4.8 mph 80 % 0.0 in 125.0 W/m2 BKN
11:15 9.8 °F 6.5 °F 1023.2 in West 5.6 mph 5.6 mph 80 % 0.0 in 227.0 W/m2 BKN
11:20 9.9 °F 6.7 °F 1023.2 in West 7.4 mph 7.4 mph 80 % 0.0 in 174.0 W/m2 BKN
11:25 10.2 °F 6.9 °F 1023.2 in West 13.0 mph 13.0 mph 80 % 0.0 in 441.0 W/m2 BKN
11:30 10.7 °F 7.3 °F 1023.2 in WSW 9.3 mph 9.3 mph 80 % 0.0 in 418.0 W/m2 SCT
11:35 11.2 °F 7.4 °F 1023.2 in West 18.5 mph 18.5 mph 78 % 0.0 in 540.0 W/m2 CLR
11:40 11.7 °F 7.9 °F 1023.2 in WNW 20.4 mph 20.4 mph 78 % 0.0 in 564.0 W/m2 CLR
11:45 12.0 °F 7.9 °F 1023.2 in WNW 18.5 mph 18.5 mph 76 % 0.0 in 336.0 W/m2 CLR
11:50 11.8 °F 7.9 °F 1023.2 in WNW 24.1 mph 24.1 mph 77 % 0.0 in 287.0 W/m2 FEW
11:55 11.8 °F 7.7 °F 1023.2 in WNW 18.5 mph 18.5 mph 76 % 0.0 in 253.0 W/m2 SCT
12:00 11.8 °F 7.9 °F 1023.2 in WNW 18.5 mph 18.5 mph 77 % 0.0 in 302.0 W/m2 SCT
12:05 11.9 °F 8.1 °F 1022.9 in WNW 14.8 mph 14.8 mph 77 % 0.0 in 294.0 W/m2 SCT
12:10 12.2 °F 8.3 °F 1022.9 in WNW 14.8 mph 14.8 mph 77 % 0.0 in 388.0 W/m2 SCT
12:15 12.4 °F 8.3 °F 1022.9 in WNW 20.4 mph 20.4 mph 76 % 0.0 in 341.0 W/m2 SCT
12:20 12.4 °F 8.3 °F 1022.6 in WNW 31.5 mph 31.5 mph 76 % 0.0 in 244.0 W/m2 SCT
12:25 12.3 °F 8.2 °F 1022.6 in WNW 27.8 mph 27.8 mph 76 % 0.0 in 218.0 W/m2 SCT
12:30 12.3 °F 8.3 °F 1022.6 in WNW 18.5 mph 18.5 mph 77 % 0.0 in 244.0 W/m2 BKN
12:35 12.4 °F 8.4 °F 1022.6 in WNW 18.5 mph 18.5 mph 77 % 0.0 in 237.0 W/m2 BKN
12:40 12.5 °F 8.4 °F 1022.9 in WNW 18.5 mph 18.5 mph 76 % 0.0 in 207.0 W/m2 BKN
12:45 12.6 °F 8.5 °F 1022.6 in WNW 18.5 mph 18.5 mph 76 % 0.0 in 155.0 W/m2 BKN
12:50 12.7 °F 8.6 °F 1022.6 in WNW 18.5 mph 18.5 mph 76 % 0.0 in 225.0 W/m2 BKN
12:55 13.2 °F 8.8 °F 1022.6 in WNW 20.9 mph 20.9 mph 75 % 0.0 in 483.0 W/m2 SCT
13:00 13.4 °F 8.7 °F 1022.6 in WNW 27.8 mph 27.8 mph 73 % 0.0 in 425.0 W/m2 CLR
13:05 13.4 °F 8.7 °F 1022.6 in WNW 24.1 mph 24.1 mph 73 % 0.0 in 425.0 W/m2 CLR
13:10 13.7 °F 9.1 °F 1022.6 in WNW 20.4 mph 20.4 mph 74 % 0.0 in 490.0 W/m2 CLR
13:15 13.8 °F 9.1 °F 1022.2 in WNW 20.4 mph 20.4 mph 73 % 0.0 in 492.0 W/m2 CLR
13:20 14.0 °F 9.1 °F 1022.2 in NW 25.9 mph 25.9 mph 72 % 0.0 in 494.0 W/m2 CLR
13:25 14.0 °F 9.1 °F 1022.2 in NW 22.2 mph 22.2 mph 72 % 0.0 in 522.0 W/m2 CLR
13:30 13.9 °F 9.0 °F 1022.2 in NW 29.6 mph 29.6 mph 72 % 0.0 in 524.0 W/m2 CLR
13:35 14.1 °F 9.1 °F 1022.2 in NW 25.9 mph 25.9 mph 72 % 0.0 in 492.0 W/m2 CLR
13:40 14.3 °F 9.5 °F 1021.9 in WNW 11.3 mph 11.3 mph 73 % 0.0 in 522.0 W/m2 CLR
13:45 14.4 °F 9.4 °F 1021.9 in NW 18.5 mph 18.5 mph 72 % 0.0 in 130.0 W/m2 CLR
13:50 14.3 °F 9.3 °F 1021.9 in NW 18.5 mph 18.5 mph 72 % 0.0 in 476.0 W/m2 SCT
13:55 14.5 °F 9.3 °F 1021.6 in NW 22.2 mph 22.2 mph 71 % 0.0 in 508.0 W/m2 SCT
14:00 14.6 °F 9.4 °F 1021.9 in NW 22.2 mph 22.2 mph 71 % 0.0 in 504.0 W/m2 CLR
14:05 14.6 °F 9.2 °F 1021.6 in NW 18.5 mph 18.5 mph 70 % 0.0 in 151.0 W/m2 CLR
14:10 14.5 °F 9.3 °F 1021.6 in NW 22.5 mph 22.5 mph 71 % 0.0 in 67.0 W/m2 CLR
14:15 14.5 °F 9.3 °F 1021.6 in NW 18.5 mph 18.5 mph 71 % 0.0 in 70.0 W/m2 BKN
14:20 14.7 °F 9.4 °F 1021.6 in WNW 20.4 mph 20.4 mph 71 % 0.0 in 459.0 W/m2 SCT
14:25 14.9 °F 9.2 °F 1021.6 in NW 24.1 mph 24.1 mph 69 % 0.0 in 425.0 W/m2 CLR
14:30 15.2 °F 9.5 °F 1021.6 in NW 24.1 mph 24.1 mph 69 % 0.0 in 415.0 W/m2 CLR
14:35 15.3 °F 9.4 °F 1021.6 in NW 16.7 mph 16.7 mph 68 % 0.0 in 420.0 W/m2 CLR
14:40 15.2 °F 9.3 °F 1021.6 in NW 18.5 mph 18.5 mph 68 % 0.0 in 62.0 W/m2 FEW
14:45 15.0 °F 9.3 °F 1021.6 in NW 18.5 mph 18.5 mph 69 % 0.0 in 417.0 W/m2 SCT
14:50 14.9 °F 9.2 °F 1021.6 in NW 20.4 mph 20.4 mph 69 % 0.0 in 62.0 W/m2 BKN
14:55 14.9 °F 9.4 °F 1021.6 in NW 16.7 mph 16.7 mph 70 % 0.0 in 79.0 W/m2 SCT
15:00 15.3 °F 9.6 °F 1021.6 in NW 22.2 mph 22.2 mph 69 % 0.0 in 480.0 W/m2 FEW
15:05 15.4 °F 9.7 °F 1021.2 in NW 22.5 mph 22.5 mph 69 % 0.0 in 53.0 W/m2 SCT
15:10 15.2 °F 9.5 °F 1021.6 in NW 18.5 mph 18.5 mph 69 % 0.0 in 345.0 W/m2 SCT
15:15 15.3 °F 9.7 °F 1021.2 in NW 20.4 mph 20.4 mph 69 % 0.0 in 350.0 W/m2 FEW
15:20 15.4 °F 9.8 °F 1021.6 in WNW 20.4 mph 20.4 mph 69 % 0.0 in 346.0 W/m2 CLR
15:25 15.6 °F 9.9 °F 1021.6 in NW 22.2 mph 22.2 mph 69 % 0.0 in 313.0 W/m2 CLR
15:30 15.6 °F 10.1 °F 1021.6 in NW 33.3 mph 33.3 mph 70 % 0.0 in 306.0 W/m2 CLR
15:35 15.2 °F 9.7 °F 1021.6 in NW 24.1 mph 24.1 mph 70 % 0.0 in 35.0 W/m2 FEW
15:40 14.7 °F 9.7 °F 1021.6 in NW 20.9 mph 20.9 mph 72 % 0.0 in 49.0 W/m2 BKN
15:45 14.8 °F 10.0 °F 1021.6 in NW 22.2 mph 22.2 mph 73 % 0.0 in 271.0 W/m2 BKN
15:50 15.0 °F 10.0 °F 1021.6 in NW 22.2 mph 22.2 mph 72 % 0.0 in 255.0 W/m2 FEW
15:56 15.2 °F 10.2 °F 1021.6 in NNW 16.7 mph 16.7 mph 72 % 0.0 in 248.0 W/m2 CLR
16:01 15.2 °F 9.9 °F 1021.6 in NW 25.9 mph 25.9 mph 71 % 0.0 in 234.0 W/m2 CLR
16:06 15.2 °F 10.2 °F 1021.6 in NW 18.5 mph 18.5 mph 72 % 0.0 in 220.0 W/m2 CLR
16:11 15.2 °F 10.2 °F 1021.6 in NW 22.2 mph 22.2 mph 72 % 0.0 in 206.0 W/m2 CLR
16:16 15.2 °F 10.2 °F 1021.6 in NW 22.5 mph 22.5 mph 72 % 0.0 in 193.0 W/m2 CLR
16:21 15.1 °F 9.8 °F 1021.9 in NW 18.5 mph 18.5 mph 71 % 0.0 in 30.0 W/m2 CLR
16:26 14.8 °F 10.1 °F 1021.9 in NW 18.5 mph 18.5 mph 73 % 0.0 in 121.0 W/m2 BKN
16:31 14.8 °F 10.1 °F 1021.9 in NW 16.7 mph 16.7 mph 73 % 0.0 in 155.0 W/m2 SCT
16:36 14.9 °F 10.2 °F 1021.9 in NW 16.7 mph 16.7 mph 73 % 0.0 in 144.0 W/m2 CLR
16:41 14.9 °F 10.1 °F 1021.9 in NW 20.4 mph 20.4 mph 73 % 0.0 in 32.0 W/m2 CLR
16:46 14.8 °F 10.0 °F 1022.2 in NW 14.5 mph 14.5 mph 73 % 0.0 in 32.0 W/m2 SCT
16:51 14.6 °F 10.0 °F 1022.2 in NW 14.8 mph 14.8 mph 74 % 0.0 in 26.0 W/m2 BKN
16:56 14.5 °F 9.9 °F 1022.2 in Calm     74 % 0.0 in 19.0 W/m2 SCT
17:01 14.4 °F 10.0 °F 1022.2 in Calm     75 % 0.0 in 25.0 W/m2 CLR
17:06 14.3 °F 9.9 °F 1022.2 in Calm     75 % 0.0 in 28.0 W/m2 OVC
17:11 14.3 °F 9.9 °F 1022.2 in Calm     75 % 0.0 in 25.0 W/m2 OVC
17:16 14.3 °F 9.9 °F 1022.2 in Calm     75 % 0.0 in 26.0 W/m2 OVC
17:21 14.3 °F 9.9 °F 1022.2 in WNW 11.1 mph 11.1 mph 75 % 0.0 in 14.0 W/m2 OVC
17:26 14.3 °F 9.9 °F 1022.2 in WNW 13.0 mph 13.0 mph 75 % 0.0 in 12.0 W/m2 OVC
17:31 14.2 °F 9.8 °F 1022.6 in Calm     75 % 0.0 in 11.0 W/m2 OVC
17:36 14.0 °F 9.6 °F 1022.6 in Calm     75 % 0.0 in 9.0 W/m2 OVC
17:41 13.9 °F 9.7 °F 1022.6 in Calm   0.2 mph 76 % 0.0 in 5.0 W/m2 OVC
17:46 13.9 °F 9.7 °F 1022.6 in WNW 1.9 mph 1.9 mph 76 % 0.0 in 0.0 W/m2 OVC
17:51 13.9 °F 9.7 °F 1022.6 in Calm     76 % 0.0 in 0.0 W/m2 OVC
17:56 13.9 °F 9.8 °F 1022.6 in West 3.7 mph   76 % 0.0 in 0.0 W/m2 CLR
18:01 13.9 °F 9.8 °F 1022.6 in Calm     76 % 0.0 in 0.0 W/m2 CLR
18:06 13.9 °F 9.8 °F 1022.6 in WNW 3.2 mph 3.2 mph 76 % 0.0 in 0.0 W/m2 CLR
18:11 14.0 °F 9.8 °F 1022.9 in West 3.2 mph 3.4 mph 76 % 0.0 in 0.0 W/m2 CLR
18:16 14.1 °F 9.7 °F 1022.9 in WNW 5.6 mph 5.6 mph 75 % 0.0 in 0.0 W/m2 CLR
18:21 14.1 °F 9.7 °F 1022.9 in Calm     75 % 0.0 in 0.0 W/m2 CLR
18:26 14.0 °F 9.6 °F 1022.9 in West 5.6 mph 5.6 mph 75 % 0.0 in 0.0 W/m2 CLR
18:31 14.0 °F 9.6 °F 1023.2 in West 7.4 mph 7.4 mph 75 % 0.0 in 0.0 W/m2 CLR
18:36 14.1 °F 9.7 °F 1023.2 in West 9.3 mph 9.3 mph 75 % 0.0 in 0.0 W/m2 CLR
18:41 14.0 °F 9.6 °F 1023.2 in West 16.7 mph 16.7 mph 75 % 0.0 in 0.0 W/m2 CLR
18:46 14.0 °F 9.6 °F 1023.2 in West 18.5 mph 18.5 mph 75 % 0.0 in 0.0 W/m2 CLR
18:51 14.0 °F 9.6 °F 1023.2 in West 19.3 mph 19.3 mph 75 % 0.0 in 0.0 W/m2 CLR
18:56 13.9 °F 9.6 °F 1023.2 in West 22.2 mph 22.2 mph 75 % 0.0 in 0.0 W/m2 CLR
19:01 13.9 °F 9.7 °F 1023.6 in WNW 18.5 mph 18.5 mph 76 % 0.0 in 0.0 W/m2 CLR
19:06 13.8 °F 9.6 °F 1023.2 in WNW 20.4 mph 20.4 mph 76 % 0.0 in 0.0 W/m2 CLR
19:11 13.6 °F 9.7 °F 1023.6 in WNW 22.2 mph 22.2 mph 77 % 0.0 in 0.0 W/m2 CLR
19:16 13.4 °F 9.5 °F 1023.6 in WNW 18.5 mph 18.5 mph 77 % 0.0 in 0.0 W/m2 CLR
19:21 13.3 °F 9.6 °F 1023.6 in WNW 22.2 mph 22.2 mph 78 % 0.0 in 0.0 W/m2 CLR
19:26 13.2 °F 9.4 °F 1023.6 in WNW 22.2 mph 22.2 mph 78 % 0.0 in 0.0 W/m2 CLR
19:31 13.2 °F 9.4 °F 1023.9 in WNW 16.7 mph 16.7 mph 78 % 0.0 in 0.0 W/m2 CLR
19:36 13.2 °F 9.6 °F 1023.9 in WNW 22.2 mph 22.2 mph 79 % 0.0 in 0.0 W/m2 CLR
19:41 13.2 °F 9.6 °F 1023.9 in West 16.7 mph 16.7 mph 79 % 0.0 in 0.0 W/m2 CLR
19:46 13.1 °F 9.6 °F 1023.9 in WNW 18.5 mph 18.5 mph 79 % 0.0 in 0.0 W/m2 CLR
19:51 13.1 °F 9.5 °F 1023.9 in WNW 18.5 mph 18.5 mph 79 % 0.0 in 0.0 W/m2 CLR
19:56 13.0 °F 9.4 °F 1023.9 in WNW 18.5 mph 18.5 mph 79 % 0.0 in 0.0 W/m2 CLR
20:01 12.9 °F 9.3 °F 1023.9 in WNW 25.9 mph 25.9 mph 79 % 0.0 in 0.0 W/m2 CLR
20:06 13.0 °F 9.4 °F 1023.9 in WNW 20.4 mph 20.4 mph 79 % 0.0 in 0.0 W/m2 CLR
20:11 12.9 °F 9.3 °F 1024.3 in West 18.5 mph 18.5 mph 79 % 0.0 in 0.0 W/m2 CLR
20:16 12.9 °F 9.3 °F 1024.3 in West 18.5 mph 18.5 mph 79 % 0.0 in 0.0 W/m2 CLR
20:21 12.8 °F 9.3 °F 1024.3 in West 18.5 mph 18.5 mph 79 % 0.0 in 0.0 W/m2 CLR
20:26 12.8 °F 9.3 °F 1024.3 in West 18.5 mph 18.5 mph 79 % 0.0 in 0.0 W/m2 CLR
20:31 12.8 °F 9.2 °F 1024.3 in West 20.4 mph 20.4 mph 79 % 0.0 in 0.0 W/m2 CLR
20:36 12.8 °F 9.3 °F 1024.3 in West 18.5 mph 18.5 mph 79 % 0.0 in 0.0 W/m2 CLR
20:41 12.7 °F 9.2 °F 1024.3 in West 16.7 mph 16.7 mph 79 % 0.0 in 0.0 W/m2 CLR
20:46 12.7 °F 9.2 °F 1024.3 in West 18.5 mph 18.5 mph 79 % 0.0 in 0.0 W/m2 CLR
20:51 12.6 °F 9.1 °F 1024.6 in West 13.0 mph 13.0 mph 79 % 0.0 in 0.0 W/m2 CLR
20:56 12.6 °F 9.2 °F 1024.6 in West 20.4 mph 20.4 mph 80 % 0.0 in 0.0 W/m2 CLR
21:01 12.6 °F 9.2 °F 1024.6 in West 18.5 mph 18.5 mph 80 % 0.0 in 0.0 W/m2 CLR
21:06 12.4 °F 9.1 °F 1024.6 in West 14.8 mph 14.8 mph 80 % 0.0 in 0.0 W/m2 CLR
21:11 12.3 °F 9.0 °F 1024.6 in WSW 14.8 mph 14.8 mph 80 % 0.0 in 0.0 W/m2 CLR
21:16 12.3 °F 8.9 °F 1024.6 in West 14.8 mph 14.8 mph 80 % 0.0 in 0.0 W/m2 CLR
21:21 12.3 °F 8.9 °F 1024.6 in West 7.4 mph 7.4 mph 80 % 0.0 in 0.0 W/m2 CLR
21:26 12.3 °F 8.9 °F 1024.6 in West 14.8 mph 14.8 mph 80 % 0.0 in 0.0 W/m2 CLR
21:31 12.2 °F 8.9 °F 1024.6 in West 13.0 mph 13.0 mph 80 % 0.0 in 0.0 W/m2 CLR
21:36 12.3 °F 9.1 °F 1024.9 in West 20.4 mph 20.4 mph 81 % 0.0 in 0.0 W/m2 CLR
21:41 12.2 °F 8.9 °F 1024.9 in West 14.8 mph 14.8 mph 80 % 0.0 in 0.0 W/m2 CLR
21:46 12.2 °F 9.0 °F 1024.9 in West 14.8 mph 14.8 mph 81 % 0.0 in 0.0 W/m2 CLR
21:51 12.1 °F 8.9 °F 1024.9 in WSW 16.7 mph 16.7 mph 81 % 0.0 in 0.0 W/m2 CLR
21:56 11.9 °F 8.8 °F 1024.9 in WSW 13.0 mph 13.0 mph 81 % 0.0 in 0.0 W/m2 CLR
22:01 11.8 °F 8.7 °F 1025.3 in WSW 14.8 mph 14.8 mph 81 % 0.0 in 0.0 W/m2 CLR
22:06 11.8 °F 8.8 °F 1025.3 in WSW 11.1 mph 11.1 mph 82 % 0.0 in 0.0 W/m2 CLR
22:11 11.8 °F 8.8 °F 1025.3 in West 20.4 mph 20.4 mph 82 % 0.0 in 0.0 W/m2 CLR
22:16 12.1 °F 8.9 °F 1025.3 in West 20.4 mph 20.4 mph 81 % 0.0 in 0.0 W/m2 CLR
22:21 12.2 °F 8.8 °F 1025.3 in West 25.9 mph 25.9 mph 80 % 0.0 in 0.0 W/m2 CLR
22:26 12.1 °F 8.8 °F 1025.3 in West 19.3 mph 19.3 mph 80 % 0.0 in 0.0 W/m2 CLR
22:31 12.2 °F 8.9 °F 1025.3 in West 20.4 mph 20.4 mph 80 % 0.0 in 0.0 W/m2 CLR
22:36 12.3 °F 8.9 °F 1025.3 in West 20.4 mph 20.4 mph 80 % 0.0 in 0.0 W/m2 CLR
22:41 12.3 °F 8.8 °F 1025.3 in West 18.5 mph 18.5 mph 79 % 0.0 in 0.0 W/m2 CLR
22:47 12.3 °F 8.8 °F 1025.6 in West 24.1 mph 24.1 mph 79 % 0.0 in 0.0 W/m2 CLR
22:52 12.4 °F 8.8 °F 1025.6 in West 20.4 mph 20.4 mph 79 % 0.0 in 0.0 W/m2 CLR
22:57 12.4 °F 8.7 °F 1025.6 in West 20.4 mph 20.4 mph 78 % 0.0 in 0.0 W/m2 CLR
23:02 12.4 °F 8.7 °F 1025.6 in West 29.6 mph 29.6 mph 78 % 0.0 in 0.0 W/m2 CLR
23:07 12.5 °F 8.8 °F 1025.6 in West 24.1 mph 24.1 mph 78 % 0.0 in 0.0 W/m2 CLR
23:12 12.4 °F 8.7 °F 1025.6 in West 20.4 mph 20.4 mph 78 % 0.0 in 0.0 W/m2 CLR
23:17 12.4 °F 8.7 °F 1025.6 in West 20.4 mph 20.4 mph 78 % 0.0 in 0.0 W/m2 CLR
23:22 12.2 °F 8.6 °F 1026.0 in West 14.8 mph 14.8 mph 79 % 0.0 in 0.0 W/m2 CLR
23:27 12.0 °F 8.4 °F 1025.6 in West 19.3 mph 19.3 mph 79 % 0.0 in 0.0 W/m2 CLR
23:32 12.2 °F 8.6 °F 1025.6 in West 25.9 mph 25.9 mph 79 % 0.0 in 0.0 W/m2 CLR
23:37 12.2 °F 8.7 °F 1025.6 in West 25.9 mph 25.9 mph 79 % 0.0 in 0.0 W/m2 CLR
23:42 12.3 °F 8.6 °F 1025.6 in West 24.1 mph 24.1 mph 78 % 0.0 in 0.0 W/m2 CLR
23:47 12.3 °F 8.6 °F 1025.6 in West 24.1 mph 24.1 mph 78 % 0.0 in 0.0 W/m2 CLR
23:52 12.2 °F 8.5 °F 1025.6 in West 22.2 mph 22.2 mph 78 % 0.0 in 0.0 W/m2 CLR
23:57 12.1 °F 8.4 °F 1025.6 in West 22.2 mph 22.2 mph 78 % 0.0 in 0.0 W/m2 CLR
Lo Temps de Massalio
Compliments of Weather Underground - 1.25 mb